Time;durP1;ratioP1;P1;durP2;ratioP2;P2;SDS_P1;SDS_P2;PMS_P1;PMS_P2;Temp;Humidity;BMP_temperature;BMP_pressure;BME280_temperature;BME280_humidity;BME280_pressure;Samples;Min_cycle;Max_cycle;Signal;HPM_P1;HPM_P2
2023/08/28 00:01:11;;;;;;;11.65;7.82;;;;;;;22.70;49.77;101226.88;5022529;28;20104;-33
2023/08/28 00:03:40;;;;;;;12.13;7.90;;;;;;;22.70;49.59;101231.44;5024670;28;20049;-33
2023/08/28 00:06:07;;;;;;;12.90;8.10;;;;;;;22.69;49.47;101227.91;5024404;28;20054;-33
2023/08/28 00:08:34;;;;;;;10.45;7.22;;;;;;;22.69;49.42;101230.59;5021493;28;20053;-33
2023/08/28 00:11:02;;;;;;;10.25;7.18;;;;;;;22.69;49.90;101224.34;5021941;28;20045;-33
2023/08/28 00:13:29;;;;;;;11.00;7.35;;;;;;;22.67;49.31;101228.09;5022547;28;20057;-33
2023/08/28 00:15:56;;;;;;;11.25;7.55;;;;;;;22.67;49.75;101221.81;5023552;28;20073;-33
2023/08/28 00:18:22;;;;;;;10.27;7.20;;;;;;;22.66;49.73;101215.56;5023711;28;20045;-33
2023/08/28 00:20:49;;;;;;;10.32;6.82;;;;;;;22.65;49.68;101219.28;5027064;28;20140;-33
2023/08/28 00:23:15;;;;;;;9.82;6.78;;;;;;;22.66;49.68;101230.94;5020935;28;20065;-33
2023/08/28 00:25:42;;;;;;;10.68;7.05;;;;;;;22.64;49.73;101220.31;5021610;28;20487;-33
2023/08/28 00:28:09;;;;;;;10.27;7.30;;;;;;;22.64;49.87;101228.44;5021049;28;20046;-33
2023/08/28 00:30:35;;;;;;;9.32;6.78;;;;;;;22.64;49.79;101224.88;5021336;28;20041;-33
2023/08/28 00:33:02;;;;;;;9.98;6.90;;;;;;;22.63;49.73;101224.06;5021643;28;20132;-33
2023/08/28 00:35:29;;;;;;;9.90;6.35;;;;;;;22.63;49.89;101236.69;5021846;28;20041;-33
2023/08/28 00:37:55;;;;;;;9.93;6.82;;;;;;;22.63;49.86;101236.69;5020594;28;20049;-33
2023/08/28 00:40:22;;;;;;;11.05;6.47;;;;;;;22.62;50.22;101237.72;5023368;28;20573;-33
2023/08/28 00:42:49;;;;;;;8.60;5.93;;;;;;;22.61;50.16;101249.53;5022563;28;20046;-33
2023/08/28 00:45:15;;;;;;;9.27;6.10;;;;;;;22.60;49.83;101242.47;5018303;28;20046;-33
2023/08/28 00:47:45;;;;;;;9.30;5.65;;;;;;;22.58;50.11;101247.19;5022760;28;20340;-33
2023/08/28 00:50:12;;;;;;;8.07;5.38;;;;;;;22.56;49.76;101241.97;5022337;28;20053;-33
2023/08/28 00:52:39;;;;;;;9.18;6.20;;;;;;;22.55;49.83;101245.69;5020722;28;20080;-33
2023/08/28 00:55:06;;;;;;;8.20;5.63;;;;;;;22.55;50.19;101248.41;5021266;28;20398;-33
2023/08/28 00:57:32;;;;;;;8.18;5.55;;;;;;;22.55;49.75;101239.41;5024240;28;20311;-33
2023/08/28 00:59:59;;;;;;;8.52;5.57;;;;;;;22.53;50.28;101236.91;5017354;28;20049;-33
2023/08/28 01:02:25;;;;;;;8.55;5.13;;;;;;;22.53;50.04;101231.50;5018170;28;20626;-33
2023/08/28 01:04:53;;;;;;;9.05;5.53;;;;;;;22.53;49.90;101225.25;5020303;28;20057;-33
2023/08/28 01:07:19;;;;;;;6.78;4.78;;;;;;;22.53;50.13;101231.50;5022143;28;20136;-33
2023/08/28 01:10:09;;;;;;;6.78;4.65;;;;;;;22.50;50.28;101226.44;5016980;28;20426;-33
2023/08/28 01:12:46;;;;;;;8.20;5.57;;;;;;;22.53;49.76;101230.66;5022894;28;20115;-33
2023/08/28 01:15:18;;;;;;;6.85;4.72;;;;;;;22.52;50.27;101237.09;5022487;28;20322;-33
2023/08/28 01:17:46;;;;;;;13.43;5.18;;;;;;;22.50;50.05;101237.25;5019012;28;20056;-33
2023/08/28 01:20:15;;;;;;;7.97;5.07;;;;;;;22.51;49.84;101235.38;5019258;28;20060;-33
2023/08/28 01:22:56;;;;;;;6.80;4.53;;;;;;;22.48;50.11;101233.88;5020700;28;20287;-33
2023/08/28 01:25:27;;;;;;;7.05;4.30;;;;;;;22.49;49.91;101229.31;5021036;28;20080;-33
2023/08/28 01:27:55;;;;;;;6.47;4.50;;;;;;;22.47;49.94;101226.78;5018780;28;20082;-33
2023/08/28 01:30:22;;;;;;;6.55;4.10;;;;;;;22.47;49.79;101229.47;5019443;28;20045;-33
2023/08/28 01:32:48;;;;;;;5.82;4.28;;;;;;;22.46;49.77;101235.91;5020350;28;20088;-33
2023/08/28 01:35:20;;;;;;;6.95;4.53;;;;;;;22.46;50.02;101233.22;5026517;28;20037;-33
2023/08/28 01:38:20;;;;;;;7.97;4.25;;;;;;;22.44;49.97;101235.25;5020695;28;20049;-33
2023/08/28 01:41:10;;;;;;;11.18;4.90;;;;;;;22.43;50.07;101238.94;5020907;28;20046;-33
2023/08/28 01:43:42;;;;;;;6.88;3.83;;;;;;;22.45;50.20;101230.69;5023262;28;20052;-33
2023/08/28 01:46:09;;;;;;;5.60;3.92;;;;;;;22.45;50.18;101233.38;5022144;28;20074;-33
2023/08/28 01:48:42;;;;;;;5.05;3.70;;;;;;;22.43;50.14;101222.75;5020957;28;20045;-33
2023/08/28 01:51:08;;;;;;;6.47;3.90;;;;;;;22.44;49.86;101213.66;5024434;28;20046;-33
2023/08/28 01:53:35;;;;;;;6.53;4.25;;;;;;;22.44;50.03;101210.94;5023356;28;20068;-33
2023/08/28 01:56:08;;;;;;;5.53;3.60;;;;;;;22.43;49.96;101206.53;5024267;28;20503;-33
2023/08/28 01:58:41;;;;;;;6.63;4.10;;;;;;;22.43;50.14;101206.53;5023875;28;20056;-33
2023/08/28 02:01:08;;;;;;;4.43;3.35;;;;;;;22.44;50.04;101210.09;5023462;28;20128;-33
2023/08/28 02:03:36;;;;;;;6.13;3.60;;;;;;;22.42;50.03;101208.41;5021068;28;20344;-33
2023/08/28 02:06:03;;;;;;;4.57;3.28;;;;;;;22.42;50.06;101207.56;5019584;28;20068;-33
2023/08/28 02:08:29;;;;;;;5.15;3.15;;;;;;;22.42;50.03;101211.09;5019584;28;20143;-33
2023/08/28 02:10:56;;;;;;;5.85;3.83;;;;;;;22.42;50.22;101218.34;5020059;28;20367;-33
2023/08/28 02:13:23;;;;;;;4.72;3.17;;;;;;;22.41;50.17;101222.09;5022415;28;20046;-33
2023/08/28 02:15:49;;;;;;;5.20;3.30;;;;;;;22.40;50.36;101221.25;5017666;28;20053;-33
2023/08/28 02:18:16;;;;;;;4.80;3.35;;;;;;;22.40;50.19;101217.72;5019092;28;20393;-33
2023/08/28 02:20:43;;;;;;;7.00;3.50;;;;;;;22.39;50.21;101213.28;5018260;28;20057;-33
2023/08/28 02:23:11;;;;;;;5.53;3.20;;;;;;;22.39;50.43;101210.59;5018080;28;20385;-33
2023/08/28 02:25:42;;;;;;;4.50;3.13;;;;;;;22.38;50.08;101219.72;5020419;28;20081;-33
2023/08/28 02:28:08;;;;;;;4.85;2.97;;;;;;;22.38;50.23;101209.75;5022446;28;20059;-33
2023/08/28 02:30:35;;;;;;;4.63;3.10;;;;;;;22.38;50.30;101208.91;5019296;28;20124;-33
2023/08/28 02:33:02;;;;;;;4.50;2.70;;;;;;;22.37;50.49;101199.97;5019066;28;20064;-33
2023/08/28 02:35:29;;;;;;;4.80;2.97;;;;;;;22.37;50.35;101194.56;5023691;28;20046;-33
2023/08/28 02:37:55;;;;;;;4.07;2.83;;;;;;;22.38;50.25;101198.13;5018572;28;20081;-33
2023/08/28 02:40:22;;;;;;;4.40;3.20;;;;;;;22.37;50.39;101193.75;5025115;28;20133;-33
2023/08/28 02:42:48;;;;;;;3.95;2.72;;;;;;;22.36;50.05;101197.47;5025044;28;20045;-33
2023/08/28 02:45:15;;;;;;;4.40;3.10;;;;;;;22.35;50.54;101185.81;5023505;28;20111;-33
2023/08/28 02:47:41;;;;;;;4.93;2.97;;;;;;;22.35;50.39;101201.16;5026599;28;20107;-33
2023/08/28 02:50:08;;;;;;;3.78;2.70;;;;;;;22.35;50.63;101195.75;5030749;28;20049;-33
2023/08/28 02:52:35;;;;;;;3.72;2.80;;;;;;;22.33;50.67;101198.66;5024949;28;20370;-33
2023/08/28 02:55:02;;;;;;;3.20;2.58;;;;;;;22.33;50.68;101193.25;5024719;28;20050;-33
2023/08/28 02:57:28;;;;;;;5.50;2.60;;;;;;;22.32;50.17;101175.34;5027056;28;20078;-33
2023/08/28 02:59:55;;;;;;;5.00;2.60;;;;;;;22.32;50.10;101177.22;5026676;28;20099;-33
2023/08/28 03:02:21;;;;;;;3.65;2.60;;;;;;;22.31;50.62;101173.69;5028305;28;20144;-33
2023/08/28 03:04:48;;;;;;;3.78;2.35;;;;;;;22.31;50.57;101173.69;5027378;28;20045;-33
2023/08/28 03:07:15;;;;;;;3.83;2.42;;;;;;;22.32;50.33;101179.94;5025769;28;20095;-33
2023/08/28 03:09:41;;;;;;;3.60;2.50;;;;;;;22.31;50.56;101173.69;5022998;28;20507;-33
2023/08/28 03:12:08;;;;;;;4.40;2.67;;;;;;;22.30;50.47;101171.13;5026087;28;20124;-33
2023/08/28 03:14:35;;;;;;;3.80;2.40;;;;;;;22.30;50.42;101174.69;5023842;28;20130;-33
2023/08/28 03:17:01;;;;;;;4.15;2.50;;;;;;;22.29;50.64;101173.00;5023605;28;20053;-33
2023/08/28 03:19:28;;;;;;;3.85;2.40;;;;;;;22.29;50.39;101181.09;5023953;28;20388;-33
2023/08/28 03:21:55;;;;;;;3.05;2.25;;;;;;;22.28;50.51;101184.81;5023941;28;20045;-33
2023/08/28 03:24:21;;;;;;;4.07;2.28;;;;;;;22.28;50.68;101194.78;5025344;28;20147;-33
2023/08/28 03:26:48;;;;;;;3.45;2.53;;;;;;;22.27;50.71;101196.66;5024465;28;20336;-33
2023/08/28 03:29:15;;;;;;;4.72;1.98;;;;;;;22.26;50.41;101203.03;5022549;28;20496;-33
2023/08/28 03:31:41;;;;;;;3.92;2.50;;;;;;;22.25;50.48;101205.94;5025884;28;20050;-33
2023/08/28 03:34:08;;;;;;;4.70;2.53;;;;;;;22.25;50.40;101209.47;5028400;28;20050;-33
2023/08/28 03:36:35;;;;;;;2.67;2.00;;;;;;;22.25;50.66;101208.63;5026816;28;20453;-33
2023/08/28 03:39:02;;;;;;;3.88;2.33;;;;;;;22.24;50.41;101204.25;5019635;28;20126;-33
2023/08/28 03:41:28;;;;;;;2.65;1.92;;;;;;;22.24;50.35;101215.06;5022039;28;20049;-33
2023/08/28 03:43:55;;;;;;;3.22;2.05;;;;;;;22.24;51.00;101225.84;5023121;28;20132;-33
2023/08/28 03:46:22;;;;;;;2.80;2.00;;;;;;;22.22;50.37;101228.72;5024194;28;20053;-33
2023/08/28 03:48:48;;;;;;;2.33;1.60;;;;;;;22.23;50.55;101224.16;5022481;28;20049;-33
2023/08/28 03:51:15;;;;;;;2.63;1.65;;;;;;;22.22;50.42;101226.00;5022463;28;20430;-33
2023/08/28 03:53:42;;;;;;;3.53;2.13;;;;;;;22.22;50.57;101231.41;5024679;28;20053;-33
2023/08/28 03:56:09;;;;;;;2.00;1.55;;;;;;;22.22;50.82;101238.66;5025042;28;20056;-33
2023/08/28 03:58:35;;;;;;;2.45;1.67;;;;;;;22.23;50.79;101245.75;5024313;28;20128;-33
2023/08/28 04:01:03;;;;;;;3.28;1.90;;;;;;;22.22;50.32;101252.16;5020656;28;20403;-33
2023/08/28 04:03:30;;;;;;;2.80;1.80;;;;;;;22.22;50.71;101258.41;5023800;28;20052;-33
2023/08/28 04:05:58;;;;;;;3.03;1.98;;;;;;;22.22;50.49;101244.91;5024891;28;20045;-33
2023/08/28 04:08:25;;;;;;;3.08;2.00;;;;;;;22.22;50.67;101249.47;5022879;28;20326;-33
2023/08/28 04:10:55;;;;;;;2.97;1.63;;;;;;;22.21;50.31;101259.44;5015629;28;20437;-33
2023/08/28 04:13:21;;;;;;;2.63;1.85;;;;;;;22.21;50.58;101264.00;5021413;28;20053;-33
2023/08/28 04:15:48;;;;;;;6.22;1.75;;;;;;;22.21;50.66;101261.28;5025419;28;20107;-33
2023/08/28 04:18:16;;;;;;;4.72;2.65;;;;;;;22.19;50.49;101256.03;5028602;28;20049;-33
2023/08/28 04:20:43;;;;;;;5.28;3.50;;;;;;;22.19;50.80;101261.44;5024256;28;20255;-33
2023/08/28 04:23:10;;;;;;;7.25;3.50;;;;;;;22.21;50.47;101272.09;5023801;28;20060;-33
2023/08/28 04:25:37;;;;;;;6.30;3.60;;;;;;;22.21;50.43;101266.69;5023131;28;20610;-33
2023/08/28 04:28:03;;;;;;;11.32;5.03;;;;;;;22.21;50.82;101264.84;5022327;28;20049;-33
2023/08/28 04:30:30;;;;;;;9.32;5.55;;;;;;;22.21;50.55;101269.38;5020708;28;20103;-33
2023/08/28 04:32:56;;;;;;;11.77;6.10;;;;;;;22.20;50.70;101273.97;5019982;28;20133;-33
2023/08/28 04:35:23;;;;;;;11.43;6.03;;;;;;;22.21;50.49;101285.59;5021661;28;20452;-33
2023/08/28 04:37:50;;;;;;;10.60;6.60;;;;;;;22.19;50.75;101277.66;5022412;28;20585;-33
2023/08/28 04:40:16;;;;;;;10.05;6.28;;;;;;;22.21;50.84;101291.00;5027659;28;20104;-33
2023/08/28 04:42:43;;;;;;;9.90;6.45;;;;;;;22.18;50.50;101290.31;5024421;28;20085;-33
2023/08/28 04:45:10;;;;;;;13.63;7.07;;;;;;;22.18;50.70;101295.72;5023374;28;20091;-33
2023/08/28 04:47:36;;;;;;;12.05;7.47;;;;;;;22.19;50.69;101291.16;5022796;28;20050;-33
2023/08/28 04:50:03;;;;;;;12.35;7.57;;;;;;;22.20;50.85;101308.22;5023646;28;20064;-33
2023/08/28 04:52:30;;;;;;;13.63;8.15;;;;;;;22.19;50.94;101307.34;5026347;28;20089;-34
2023/08/28 04:54:56;;;;;;;14.07;8.50;;;;;;;22.20;50.60;101298.25;5022816;28;20413;-33
2023/08/28 04:57:23;;;;;;;13.32;8.30;;;;;;;22.19;50.70;101293.84;5022269;28;20089;-33
2023/08/28 04:59:49;;;;;;;13.43;7.55;;;;;;;22.18;50.40;101287.59;5029061;28;20107;-33
2023/08/28 05:02:16;;;;;;;13.85;8.93;;;;;;;22.18;50.39;101295.72;5027824;28;20141;-33
2023/08/28 05:04:43;;;;;;;15.23;8.88;;;;;;;22.18;50.30;101295.72;5024693;28;20490;-33
2023/08/28 05:07:11;;;;;;;14.15;9.18;;;;;;;22.19;50.95;101296.53;5026066;28;20053;-33
2023/08/28 05:09:37;;;;;;;14.93;8.90;;;;;;;22.18;50.07;101298.41;5026859;28;20471;-34
2023/08/28 05:12:04;;;;;;;16.88;9.10;;;;;;;22.18;50.51;101294.88;5025816;28;20111;-33
2023/08/28 05:14:31;;;;;;;16.05;8.65;;;;;;;22.18;50.68;101297.56;5027906;28;20124;-34
2023/08/28 05:16:57;;;;;;;14.55;8.50;;;;;;;22.18;50.58;101298.41;5024411;28;20084;-34
2023/08/28 05:19:24;;;;;;;15.55;9.13;;;;;;;22.18;50.58;101294.88;5020450;28;20328;-34
2023/08/28 05:21:51;;;;;;;13.45;8.52;;;;;;;22.18;50.20;101292.16;5016426;28;20062;-34
2023/08/28 05:24:17;;;;;;;15.98;9.25;;;;;;;22.18;50.52;101297.56;5017852;28;20100;-34
2023/08/28 05:26:44;;;;;;;14.73;8.48;;;;;;;22.18;50.54;101300.25;5019633;28;20132;-34
2023/08/28 05:29:10;;;;;;;13.90;8.35;;;;;;;22.18;50.56;101297.56;5023513;28;20053;-34
2023/08/28 05:31:37;;;;;;;14.93;8.75;;;;;;;22.19;50.55;101293.84;5020264;28;20049;-34
2023/08/28 05:34:04;;;;;;;16.13;8.93;;;;;;;22.20;50.43;101286.63;5024393;28;20045;-34
2023/08/28 05:36:30;;;;;;;13.32;9.02;;;;;;;22.19;50.50;101288.44;5019173;28;20041;-34
2023/08/28 05:38:57;;;;;;;13.77;7.95;;;;;;;22.20;50.61;101290.16;5019305;28;20056;-34
2023/08/28 05:41:23;;;;;;;13.63;8.25;;;;;;;22.22;50.47;101298.06;5022725;28;20054;-34
2023/08/28 05:43:50;;;;;;;14.68;8.70;;;;;;;22.23;50.47;101294.34;5022892;28;20123;-34
2023/08/28 05:46:17;;;;;;;14.05;8.70;;;;;;;22.24;50.70;101296.06;5020275;28;20590;-34
2023/08/28 05:48:44;;;;;;;13.90;8.48;;;;;;;22.23;50.46;101300.63;5022596;28;20072;-34
2023/08/28 05:51:11;;;;;;;12.13;7.47;;;;;;;22.25;50.41;101300.44;5020869;28;20845;-34
2023/08/28 05:53:38;;;;;;;12.05;8.23;;;;;;;22.25;50.38;101297.75;5020197;28;20050;-34
2023/08/28 05:56:07;;;;;;;13.60;8.48;;;;;;;22.26;50.13;101296.72;5022463;28;20058;-34
2023/08/28 05:58:33;;;;;;;13.70;8.80;;;;;;;22.26;50.20;101289.47;5024790;28;20524;-34
2023/08/28 06:01:00;;;;;;;15.18;8.48;;;;;;;22.26;50.23;101284.06;5023257;28;20054;-34
2023/08/28 06:03:27;;;;;;;12.48;7.82;;;;;;;22.27;50.23;101287.59;5024722;28;20077;-34
2023/08/28 06:05:55;;;;;;;14.88;8.63;;;;;;;22.28;50.37;101287.44;5028826;28;20057;-34
2023/08/28 06:08:21;;;;;;;11.10;7.43;;;;;;;22.29;50.38;101293.69;5017837;28;20086;-34
2023/08/28 06:10:48;;;;;;;13.45;7.95;;;;;;;22.28;50.61;101295.53;5021357;28;20313;-34
2023/08/28 06:13:15;;;;;;;14.05;8.30;;;;;;;22.30;50.64;101295.38;5020476;28;20123;-34
2023/08/28 06:15:41;;;;;;;14.07;8.80;;;;;;;22.28;50.45;101281.19;5021780;28;20062;-34
2023/08/28 06:18:08;;;;;;;12.25;7.90;;;;;;;22.29;50.65;101289.13;5023410;28;20042;-34
2023/08/28 06:20:35;;;;;;;13.18;8.27;;;;;;;22.29;50.45;101293.69;5016729;28;20518;-34
2023/08/28 06:23:02;;;;;;;11.70;7.45;;;;;;;22.29;50.47;101290.97;5021989;28;20055;-34
2023/08/28 06:25:29;;;;;;;12.32;8.00;;;;;;;22.30;50.62;101287.25;5022025;28;20082;-34
2023/08/28 06:27:57;;;;;;;12.70;8.07;;;;;;;22.30;50.37;101285.41;5028395;28;20389;-34
2023/08/28 06:30:23;;;;;;;12.18;7.18;;;;;;;22.32;50.44;101285.25;5024413;28;20504;-34
2023/08/28 06:32:50;;;;;;;12.30;7.70;;;;;;;22.34;50.56;101296.72;5024734;28;20065;-34
2023/08/28 06:35:17;;;;;;;13.45;7.80;;;;;;;22.35;50.22;101292.97;5025207;28;20410;-34
2023/08/28 06:37:44;;;;;;;11.82;7.38;;;;;;;22.37;50.04;101299.06;5028004;28;20121;-34
2023/08/28 06:40:10;;;;;;;11.90;7.40;;;;;;;22.37;50.49;101294.50;5020626;28;20099;-34
2023/08/28 06:42:38;;;;;;;12.82;7.65;;;;;;;22.39;49.86;101295.19;5029585;28;20045;-34
2023/08/28 06:45:05;;;;;;;14.27;7.47;;;;;;;22.40;50.00;101296.03;5024673;28;20049;-34
2023/08/28 06:47:32;;;;;;;12.85;7.28;;;;;;;22.41;50.19;101309.34;5023676;28;20045;-34
2023/08/28 06:49:58;;;;;;;12.98;7.22;;;;;;;22.42;50.41;101302.94;5020059;28;21375;-34
2023/08/28 06:52:25;;;;;;;11.68;6.97;;;;;;;22.44;50.02;101301.94;5026633;28;20045;-34
2023/08/28 06:54:51;;;;;;;12.00;7.22;;;;;;;22.45;50.08;101304.47;5027979;28;20335;-34
2023/08/28 06:57:19;;;;;;;11.43;7.03;;;;;;;22.48;50.28;101311.38;5025685;28;20050;-34
2023/08/28 06:59:45;;;;;;;11.75;6.70;;;;;;;22.49;49.98;101307.66;5021938;28;20487;-34
2023/08/28 07:02:12;;;;;;;10.80;6.47;;;;;;;22.49;49.98;101311.22;5025352;28;20053;-34
2023/08/28 07:04:39;;;;;;;10.27;6.20;;;;;;;22.51;50.16;101319.13;5026476;28;20469;-34
2023/08/28 07:07:05;;;;;;;10.98;7.00;;;;;;;22.54;50.24;101318.78;5024847;28;20046;-34
2023/08/28 07:09:33;;;;;;;10.00;6.20;;;;;;;22.54;49.77;101319.63;5023414;28;20129;-34
2023/08/28 07:11:59;;;;;;;10.45;6.15;;;;;;;22.55;49.94;101323.16;5026698;28;20558;-34
2023/08/28 07:14:26;;;;;;;13.10;6.43;;;;;;;22.56;50.18;101316.78;5022303;28;20111;-34
2023/08/28 07:16:52;;;;;;;10.90;5.72;;;;;;;22.55;50.06;101309.66;5027405;28;20060;-34
2023/08/28 07:19:19;;;;;;;12.45;6.60;;;;;;;22.55;50.07;101313.22;5024289;28;20045;-34
2023/08/28 07:21:46;;;;;;;13.23;7.15;;;;;;;22.57;49.75;101308.47;5027647;28;20057;-34
2023/08/28 07:24:12;;;;;;;10.82;6.00;;;;;;;22.57;50.20;101310.34;5024653;28;20121;-34
2023/08/28 07:26:39;;;;;;;11.95;5.45;;;;;;;22.57;50.08;101316.59;5020751;28;20116;-34
2023/08/28 07:29:05;;;;;;;10.73;5.57;;;;;;;22.57;50.12;101323.84;5026177;28;20085;-34
2023/08/28 07:31:32;;;;;;;12.10;5.55;;;;;;;22.56;50.46;101323.03;5025405;28;20077;-34
2023/08/28 07:33:59;;;;;;;17.55;6.40;;;;;;;22.56;50.22;101316.78;5024905;28;21208;-34
2023/08/28 07:36:26;;;;;;;10.60;4.90;;;;;;;22.57;50.23;101307.66;5024774;28;20045;-34
2023/08/28 07:38:52;;;;;;;9.90;5.15;;;;;;;22.54;50.74;101313.38;5023060;28;20103;-34
2023/08/28 07:41:20;;;;;;;9.88;4.90;;;;;;;22.55;50.36;101317.75;5027169;28;20049;-35
2023/08/28 07:43:47;;;;;;;9.68;4.53;;;;;;;22.55;50.84;101315.94;5027460;28;20660;-34
2023/08/28 07:46:14;;;;;;;10.98;4.75;;;;;;;22.54;50.55;101319.63;5022068;28;20130;-35
2023/08/28 07:48:41;;;;;;;8.65;3.90;;;;;;;22.54;50.40;101319.63;5025564;28;20129;-35
2023/08/28 07:51:09;;;;;;;11.00;3.90;;;;;;;22.54;50.82;101321.50;5027430;28;20065;-34
2023/08/28 07:53:37;;;;;;;7.60;3.42;;;;;;;22.53;50.81;101322.50;5020781;28;20050;-35
2023/08/28 07:56:04;;;;;;;9.38;3.20;;;;;;;22.52;51.13;101323.53;5028176;28;20117;-35
2023/08/28 07:58:32;;;;;;;5.32;3.08;;;;;;;22.53;50.75;101320.66;5026179;28;20045;-35
2023/08/28 08:00:59;;;;;;;6.00;2.70;;;;;;;22.53;50.75;101317.94;5026554;28;20057;-35
2023/08/28 08:03:27;;;;;;;6.65;3.05;;;;;;;22.51;50.84;101319.13;5021317;28;20049;-35
2023/08/28 08:05:54;;;;;;;5.90;2.90;;;;;;;22.51;51.11;101319.97;5017804;28;20053;-35
2023/08/28 08:08:21;;;;;;;5.72;2.58;;;;;;;22.52;51.26;101323.53;5022885;28;20103;-35
2023/08/28 08:10:47;;;;;;;5.00;2.58;;;;;;;22.52;51.03;101323.53;5025114;28;20111;-35
2023/08/28 08:13:14;;;;;;;9.68;2.40;;;;;;;22.53;51.04;101334.16;5025083;28;20076;-35
2023/08/28 08:15:42;;;;;;;3.63;1.67;;;;;;;22.53;51.70;101334.16;5030985;28;20107;-35
2023/08/28 08:18:08;;;;;;;5.47;2.25;;;;;;;22.54;51.37;101335.84;5027381;28;20049;-34
2023/08/28 08:20:35;;;;;;;5.78;1.95;;;;;;;22.55;50.93;101336.69;5030886;28;20045;-34
2023/08/28 08:23:02;;;;;;;4.97;1.92;;;;;;;22.56;51.20;101338.38;5021934;28;20057;-35
2023/08/28 08:25:30;;;;;;;4.07;1.70;;;;;;;22.55;51.22;101340.25;5024453;28;20056;-35
2023/08/28 08:27:56;;;;;;;4.72;1.90;;;;;;;22.57;51.18;101343.59;5023610;28;20092;-35
2023/08/28 08:30:25;;;;;;;3.55;2.28;;;;;;;22.58;51.26;101342.59;5026005;28;20129;-34
2023/08/28 08:32:52;;;;;;;5.35;1.55;;;;;;;22.59;51.05;101338.03;5021448;28;20156;-35
2023/08/28 08:35:18;;;;;;;3.13;1.52;;;;;;;22.60;51.05;101345.97;5028294;28;20069;-35
2023/08/28 08:37:47;;;;;;;3.25;1.63;;;;;;;22.60;50.69;101345.97;5021272;28;20057;-35
2023/08/28 08:40:18;;;;;;;4.75;1.58;;;;;;;22.61;50.69;101338.72;5026464;28;20045;-35
2023/08/28 08:42:45;;;;;;;3.70;1.50;;;;;;;22.61;50.70;101336.84;5024085;28;20119;-35
2023/08/28 08:45:11;;;;;;;3.60;1.75;;;;;;;22.62;50.53;101338.53;5028601;28;20088;-34
2023/08/28 08:47:40;;;;;;;6.35;1.52;;;;;;;22.63;50.53;101333.97;5028758;28;20488;-35
2023/08/28 08:50:08;;;;;;;3.50;1.40;;;;;;;22.63;50.44;101333.97;5024771;28;20318;-35
2023/08/28 08:52:38;;;;;;;2.13;1.10;;;;;;;22.64;50.11;101341.06;5022634;28;20054;-35
2023/08/28 08:55:27;;;;;;;3.55;0.95;;;;;;;22.63;50.17;101339.38;5024935;28;20073;-35
2023/08/28 08:57:56;;;;;;;2.42;1.30;;;;;;;22.65;50.62;101338.19;5023026;28;20509;-34
2023/08/28 09:00:25;;;;;;;3.33;1.08;;;;;;;22.65;50.08;101340.06;5023054;28;20097;-35
2023/08/28 09:02:53;;;;;;;2.42;1.20;;;;;;;22.67;49.58;101338.00;5021436;28;20139;-35
2023/08/28 09:05:20;;;;;;;2.05;1.20;;;;;;;22.65;49.50;101338.19;5025957;28;20056;-35
2023/08/28 09:07:47;;;;;;;2.40;0.90;;;;;;;22.66;49.55;101342.56;5025089;28;20297;-35
2023/08/28 09:10:14;;;;;;;2.67;1.17;;;;;;;22.67;49.72;101344.28;5025417;28;20048;-35
2023/08/28 09:12:42;;;;;;;3.10;1.08;;;;;;;22.69;49.58;101337.84;5029951;28;20342;-35
2023/08/28 09:15:11;;;;;;;2.50;0.68;;;;;;;22.69;49.24;101330.59;5024852;28;20103;-35
2023/08/28 09:17:40;;;;;;;6.68;0.90;;;;;;;22.70;49.32;101334.13;5017070;28;20128;-35
2023/08/28 09:20:17;;;;;;;1.67;0.90;;;;;;;22.72;49.65;101332.94;5028112;28;20087;-35
2023/08/28 09:22:48;;;;;;;1.48;0.77;;;;;;;22.74;49.68;101335.47;5020356;28;20053;-35
2023/08/28 09:25:19;;;;;;;2.35;1.05;;;;;;;22.75;49.32;101321.78;5020110;28;20073;-35
2023/08/28 09:27:48;;;;;;;2.70;1.15;;;;;;;22.78;49.60;101331.41;5023032;28;20061;-35
2023/08/28 09:30:37;;;;;;;1.33;0.80;;;;;;;22.78;49.51;101329.53;5023278;28;20065;-35
2023/08/28 09:33:07;;;;;;;3.53;1.08;;;;;;;22.82;49.21;101321.94;5020324;28;20049;-35
2023/08/28 09:35:40;;;;;;;1.85;0.70;;;;;;;22.86;48.94;101328.66;5023567;28;20564;-35
2023/08/28 09:38:07;;;;;;;2.05;0.90;;;;;;;22.90;49.02;101335.41;5022202;28;20141;-34
2023/08/28 09:40:36;;;;;;;1.77;0.77;;;;;;;22.93;49.07;101337.81;5021093;28;20042;-35
2023/08/28 09:43:13;;;;;;;1.55;0.70;;;;;;;22.96;48.71;101331.22;5022525;28;20059;-34
2023/08/28 09:45:44;;;;;;;2.50;0.90;;;;;;;22.98;48.60;101335.41;5026029;28;20697;-35
2023/08/28 09:48:11;;;;;;;3.00;0.70;;;;;;;23.01;49.18;101332.38;5025628;28;20153;-34
2023/08/28 09:50:39;;;;;;;5.13;1.27;;;;;;;23.03;48.90;101330.31;5025307;28;20052;-35
2023/08/28 09:53:14;;;;;;;5.57;1.60;;;;;;;23.05;48.65;101331.00;5023400;28;20472;-34
2023/08/28 09:55:49;;;;;;;4.45;0.60;;;;;;;23.06;48.71;101329.97;5025559;28;20057;-35
2023/08/28 09:58:17;;;;;;;1.92;0.93;;;;;;;23.10;48.76;101331.31;5027039;28;20099;-34
2023/08/28 10:00:44;;;;;;;1.65;0.65;;;;;;;23.11;48.78;101327.59;5028370;28;20115;-35
2023/08/28 10:03:12;;;;;;;1.63;0.80;;;;;;;23.14;48.42;101327.25;5022900;28;20136;-34
2023/08/28 10:05:41;;;;;;;6.20;1.00;;;;;;;23.16;48.43;101324.38;5025284;28;20412;-34
2023/08/28 10:08:12;;;;;;;1.33;0.80;;;;;;;23.20;48.66;101335.69;5024288;28;20053;-34
2023/08/28 10:10:48;;;;;;;4.70;0.98;;;;;;;23.20;48.05;101325.72;5026760;28;20390;-34
2023/08/28 10:13:16;;;;;;;2.00;0.70;;;;;;;23.21;48.01;101331.97;5029958;28;20093;-34
2023/08/28 10:16:10;;;;;;;1.42;0.73;;;;;;;23.19;47.99;101333.97;5032401;28;20099;-34
2023/08/28 10:19:07;;;;;;;3.40;0.80;;;;;;;23.20;48.44;101333.00;5031959;28;20084;-34
2023/08/28 10:21:34;;;;;;;2.10;0.73;;;;;;;23.23;47.97;101332.63;5026411;28;20107;-34
2023/08/28 10:24:02;;;;;;;2.03;1.00;;;;;;;23.24;47.72;101327.03;5023717;28;20464;-34
2023/08/28 10:26:29;;;;;;;2.97;0.98;;;;;;;23.24;47.54;101335.16;5024643;28;20072;-34
2023/08/28 10:28:56;;;;;;;2.58;1.10;;;;;;;23.28;47.52;101332.94;5030087;28;20049;-34
2023/08/28 10:31:23;;;;;;;2.88;1.00;;;;;;;23.30;48.20;101336.31;5029174;28;20139;-35
2023/08/28 10:33:50;;;;;;;3.95;1.00;;;;;;;23.31;47.61;101333.41;5027383;28;20053;-34
2023/08/28 10:36:20;;;;;;;1.85;0.88;;;;;;;23.31;47.83;101333.41;5027332;28;20053;-35
2023/08/28 10:39:08;;;;;;;3.10;1.00;;;;;;;23.33;48.09;101335.97;5024101;28;20135;-35
2023/08/28 10:41:38;;;;;;;2.65;0.90;;;;;;;23.33;48.02;101338.66;5023894;28;20057;-35
2023/08/28 10:44:05;;;;;;;1.67;0.80;;;;;;;23.33;48.24;101335.97;5026538;28;20085;-35
2023/08/28 10:46:33;;;;;;;7.38;1.05;;;;;;;23.34;47.97;101338.47;5026001;28;20045;-35
2023/08/28 10:49:04;;;;;;;3.50;1.08;;;;;;;23.35;48.63;101339.31;5030050;28;20527;-35
2023/08/28 10:51:33;;;;;;;2.85;1.08;;;;;;;23.35;49.05;101337.44;5024552;28;20069;-35
2023/08/28 10:54:08;;;;;;;3.33;1.25;;;;;;;23.35;49.08;101340.16;5030841;28;20137;-35
2023/08/28 10:56:36;;;;;;;1.42;1.08;;;;;;;23.34;49.15;101348.47;5031028;28;20049;-35
2023/08/28 10:59:25;;;;;;;3.63;1.00;;;;;;;23.32;48.60;101345.94;5026409;28;20103;-35
2023/08/28 11:01:54;;;;;;;3.28;1.05;;;;;;;23.34;48.77;101354.72;5023245;28;20081;-35
2023/08/28 11:04:22;;;;;;;2.95;1.23;;;;;;;23.33;48.77;101346.78;5026462;28;20473;-35
2023/08/28 11:06:49;;;;;;;3.60;1.00;;;;;;;23.32;48.66;101348.66;5025109;28;20042;-35
2023/08/28 11:09:28;;;;;;;1.98;0.90;;;;;;;23.31;48.33;101351.50;5026496;28;20080;-35
2023/08/28 11:11:58;;;;;;;3.20;1.20;;;;;;;23.31;48.97;101344.22;5022762;28;20139;-35
2023/08/28 11:14:32;;;;;;;2.35;1.10;;;;;;;23.31;48.76;101349.63;5028298;28;20061;-35
2023/08/28 11:17:18;;;;;;;2.33;0.80;;;;;;;23.32;48.51;101351.34;5025384;28;20057;-35
2023/08/28 11:19:53;;;;;;;2.25;1.10;;;;;;;23.32;48.62;101354.06;5027264;28;20437;-35
2023/08/28 11:22:45;;;;;;;2.92;0.80;;;;;;;23.32;48.94;101345.09;5027684;28;20238;-35
2023/08/28 11:25:33;;;;;;;3.03;1.45;;;;;;;23.33;49.04;101347.63;5029044;28;20099;-35
2023/08/28 11:28:00;;;;;;;2.55;1.17;;;;;;;23.34;49.33;101346.59;5027216;28;20318;-35